sensor_id;sensor_type;location;lat;lon;timestamp;temperature;humidity
3281;DHT22;1652;51.31805600;6.20194400;2024-01-30T00:05:30;5.30;99.90
3281;DHT22;1652;51.31805600;6.20194400;2024-01-30T00:07:57;5.50;99.90
3281;DHT22;1652;51.31805600;6.20194400;2024-01-30T00:10:24;5.40;99.90
3281;DHT22;1652;51.31805600;6.20194400;2024-01-30T00:12:51;5.50;99.90
3281;DHT22;1652;51.31805600;6.20194400;2024-01-30T00:15:17;5.50;99.90
3281;DHT22;1652;51.31805600;6.20194400;2024-01-30T00:17:45;5.50;99.90
3281;DHT22;1652;51.31805600;6.20194400;2024-01-30T00:20:12;5.60;99.90
3281;DHT22;1652;51.31805600;6.20194400;2024-01-30T00:22:38;5.60;99.90
3281;DHT22;1652;51.31805600;6.20194400;2024-01-30T00:25:05;5.60;99.90
3281;DHT22;1652;51.31805600;6.20194400;2024-01-30T00:27:32;5.60;99.90
3281;DHT22;1652;51.31805600;6.20194400;2024-01-30T00:29:59;5.60;99.90
3281;DHT22;1652;51.31805600;6.20194400;2024-01-30T00:32:26;5.70;99.90
3281;DHT22;1652;51.31805600;6.20194400;2024-01-30T00:34:53;5.70;99.90
3281;DHT22;1652;51.31805600;6.20194400;2024-01-30T00:37:20;5.80;99.90
3281;DHT22;1652;51.31805600;6.20194400;2024-01-30T00:39:47;5.80;99.90
3281;DHT22;1652;51.31805600;6.20194400;2024-01-30T00:42:14;5.80;99.90
3281;DHT22;1652;51.31805600;6.20194400;2024-01-30T00:44:41;5.80;99.90
3281;DHT22;1652;51.31805600;6.20194400;2024-01-30T00:47:08;5.70;99.90
3281;DHT22;1652;51.31805600;6.20194400;2024-01-30T00:49:36;5.80;99.90
3281;DHT22;1652;51.31805600;6.20194400;2024-01-30T00:52:03;5.70;99.90
3281;DHT22;1652;51.31805600;6.20194400;2024-01-30T00:54:30;5.70;99.90
3281;DHT22;1652;51.31805600;6.20194400;2024-01-30T00:56:57;5.70;99.90
3281;DHT22;1652;51.31805600;6.20194400;2024-01-30T00:59:24;5.60;99.90
3281;DHT22;1652;51.31805600;6.20194400;2024-01-30T01:17:32;5.70;99.90
3281;DHT22;1652;51.31805600;6.20194400;2024-01-30T01:19:59;5.70;99.90
3281;DHT22;1652;51.31805600;6.20194400;2024-01-30T01:22:29;5.80;99.90
3281;DHT22;1652;51.31805600;6.20194400;2024-01-30T01:24:56;5.80;99.90
3281;DHT22;1652;51.31805600;6.20194400;2024-01-30T01:27:23;5.70;99.90
3281;DHT22;1652;51.31805600;6.20194400;2024-01-30T01:29:50;5.70;99.90
3281;DHT22;1652;51.31805600;6.20194400;2024-01-30T01:32:17;5.80;99.90
3281;DHT22;1652;51.31805600;6.20194400;2024-01-30T01:34:44;5.80;99.90
3281;DHT22;1652;51.31805600;6.20194400;2024-01-30T01:37:11;5.80;99.90
3281;DHT22;1652;51.31805600;6.20194400;2024-01-30T01:39:38;5.90;99.90
3281;DHT22;1652;51.31805600;6.20194400;2024-01-30T01:42:07;5.90;99.90
3281;DHT22;1652;51.31805600;6.20194400;2024-01-30T01:44:34;6.00;99.90
3281;DHT22;1652;51.31805600;6.20194400;2024-01-30T01:47:01;6.00;99.90
3281;DHT22;1652;51.31805600;6.20194400;2024-01-30T01:49:29;6.10;99.90
3281;DHT22;1652;51.31805600;6.20194400;2024-01-30T01:51:56;6.10;99.90
3281;DHT22;1652;51.31805600;6.20194400;2024-01-30T01:54:25;6.00;99.90
3281;DHT22;1652;51.31805600;6.20194400;2024-01-30T01:56:53;6.00;99.90
3281;DHT22;1652;51.31805600;6.20194400;2024-01-30T01:59:22;6.00;99.90
3281;DHT22;1652;51.31805600;6.20194400;2024-01-30T02:01:51;6.00;99.90
3281;DHT22;1652;51.31805600;6.20194400;2024-01-30T02:04:18;6.00;99.90
3281;DHT22;1652;51.31805600;6.20194400;2024-01-30T02:06:46;6.00;99.90
3281;DHT22;1652;51.31805600;6.20194400;2024-01-30T02:09:13;6.00;99.90
3281;DHT22;1652;51.31805600;6.20194400;2024-01-30T02:11:40;6.00;99.90
3281;DHT22;1652;51.31805600;6.20194400;2024-01-30T02:25:58;6.10;99.90
3281;DHT22;1652;51.31805600;6.20194400;2024-01-30T02:28:25;6.20;99.90
3281;DHT22;1652;51.31805600;6.20194400;2024-01-30T02:33:27;6.10;99.90
3281;DHT22;1652;51.31805600;6.20194400;2024-01-30T02:35:54;6.30;99.90
3281;DHT22;1652;51.31805600;6.20194400;2024-01-30T02:38:21;6.30;99.90
3281;DHT22;1652;51.31805600;6.20194400;2024-01-30T02:40:50;6.40;99.90
3281;DHT22;1652;51.31805600;6.20194400;2024-01-30T03:41:30;5.70;99.90
3281;DHT22;1652;51.31805600;6.20194400;2024-01-30T03:43:59;5.80;99.90
3281;DHT22;1652;51.31805600;6.20194400;2024-01-30T03:46:25;5.70;99.90
3281;DHT22;1652;51.31805600;6.20194400;2024-01-30T03:48:52;5.70;99.90
3281;DHT22;1652;51.31805600;6.20194400;2024-01-30T03:51:19;5.60;99.90
3281;DHT22;1652;51.31805600;6.20194400;2024-01-30T03:53:46;5.50;99.90
3281;DHT22;1652;51.31805600;6.20194400;2024-01-30T03:56:13;5.60;99.90
3281;DHT22;1652;51.31805600;6.20194400;2024-01-30T03:58:41;5.70;99.90
3281;DHT22;1652;51.31805600;6.20194400;2024-01-30T04:01:12;5.70;99.90
3281;DHT22;1652;51.31805600;6.20194400;2024-01-30T04:03:42;5.70;99.90
3281;DHT22;1652;51.31805600;6.20194400;2024-01-30T04:06:11;5.60;99.90
3281;DHT22;1652;51.31805600;6.20194400;2024-01-30T04:17:48;5.50;99.90
3281;DHT22;1652;51.31805600;6.20194400;2024-01-30T04:20:15;5.60;99.90
3281;DHT22;1652;51.31805600;6.20194400;2024-01-30T04:22:46;5.80;99.90
3281;DHT22;1652;51.31805600;6.20194400;2024-01-30T05:52:46;6.10;99.90
3281;DHT22;1652;51.31805600;6.20194400;2024-01-30T05:55:22;6.10;99.90
3281;DHT22;1652;51.31805600;6.20194400;2024-01-30T05:57:49;6.20;99.90
3281;DHT22;1652;51.31805600;6.20194400;2024-01-30T06:00:17;6.00;99.90
3281;DHT22;1652;51.31805600;6.20194400;2024-01-30T06:03:31;5.90;99.90
3281;DHT22;1652;51.31805600;6.20194400;2024-01-30T06:35:43;5.70;99.90
3281;DHT22;1652;51.31805600;6.20194400;2024-01-30T06:38:32;5.80;99.90
3281;DHT22;1652;51.31805600;6.20194400;2024-01-30T06:41:00;5.80;99.90
3281;DHT22;1652;51.31805600;6.20194400;2024-01-30T06:43:27;5.80;99.90
3281;DHT22;1652;51.31805600;6.20194400;2024-01-30T06:45:54;5.90;99.90
3281;DHT22;1652;51.31805600;6.20194400;2024-01-30T06:48:25;5.90;99.90
3281;DHT22;1652;51.31805600;6.20194400;2024-01-30T06:50:57;6.10;99.90
3281;DHT22;1652;51.31805600;6.20194400;2024-01-30T06:53:24;6.10;99.90
3281;DHT22;1652;51.31805600;6.20194400;2024-01-30T06:55:53;6.00;99.90
3281;DHT22;1652;51.31805600;6.20194400;2024-01-30T06:58:22;6.10;99.90
3281;DHT22;1652;51.31805600;6.20194400;2024-01-30T07:00:49;6.40;99.90
3281;DHT22;1652;51.31805600;6.20194400;2024-01-30T07:03:16;6.50;99.90
3281;DHT22;1652;51.31805600;6.20194400;2024-01-30T07:40:46;6.40;99.90
3281;DHT22;1652;51.31805600;6.20194400;2024-01-30T07:43:16;6.40;99.90
3281;DHT22;1652;51.31805600;6.20194400;2024-01-30T07:45:43;6.50;99.90
3281;DHT22;1652;51.31805600;6.20194400;2024-01-30T07:48:10;6.50;99.90
3281;DHT22;1652;51.31805600;6.20194400;2024-01-30T07:50:37;6.50;99.90
3281;DHT22;1652;51.31805600;6.20194400;2024-01-30T07:53:05;6.50;99.90
3281;DHT22;1652;51.31805600;6.20194400;2024-01-30T07:55:32;6.50;99.90
3281;DHT22;1652;51.31805600;6.20194400;2024-01-30T07:57:59;6.60;99.90
3281;DHT22;1652;51.31805600;6.20194400;2024-01-30T08:00:27;6.60;99.90
3281;DHT22;1652;51.31805600;6.20194400;2024-01-30T08:02:56;6.60;99.90
3281;DHT22;1652;51.31805600;6.20194400;2024-01-30T08:05:23;6.60;99.90
3281;DHT22;1652;51.31805600;6.20194400;2024-01-30T08:07:51;6.60;99.90
3281;DHT22;1652;51.31805600;6.20194400;2024-01-30T08:10:18;6.70;99.90
3281;DHT22;1652;51.31805600;6.20194400;2024-01-30T08:12:46;6.80;99.90
3281;DHT22;1652;51.31805600;6.20194400;2024-01-30T08:15:13;6.80;99.90
3281;DHT22;1652;51.31805600;6.20194400;2024-01-30T08:17:40;6.90;99.90
3281;DHT22;1652;51.31805600;6.20194400;2024-01-30T08:20:08;6.90;99.90
3281;DHT22;1652;51.31805600;6.20194400;2024-01-30T08:22:41;6.90;99.90
3281;DHT22;1652;51.31805600;6.20194400;2024-01-30T08:25:08;6.90;99.90
3281;DHT22;1652;51.31805600;6.20194400;2024-01-30T08:27:36;6.90;99.90
3281;DHT22;1652;51.31805600;6.20194400;2024-01-30T08:30:08;6.90;99.90
3281;DHT22;1652;51.31805600;6.20194400;2024-01-30T08:32:35;7.00;99.90
3281;DHT22;1652;51.31805600;6.20194400;2024-01-30T08:35:02;7.00;99.90
3281;DHT22;1652;51.31805600;6.20194400;2024-01-30T08:37:30;7.00;99.90
3281;DHT22;1652;51.31805600;6.20194400;2024-01-30T08:39:57;7.00;99.90
3281;DHT22;1652;51.31805600;6.20194400;2024-01-30T08:42:24;7.10;99.90
3281;DHT22;1652;51.31805600;6.20194400;2024-01-30T08:44:51;7.10;99.90
3281;DHT22;1652;51.31805600;6.20194400;2024-01-30T08:47:20;7.20;99.90
3281;DHT22;1652;51.31805600;6.20194400;2024-01-30T08:49:46;7.30;99.90
3281;DHT22;1652;51.31805600;6.20194400;2024-01-30T08:52:13;7.50;99.90
3281;DHT22;1652;51.31805600;6.20194400;2024-01-30T08:54:40;7.60;99.90
3281;DHT22;1652;51.31805600;6.20194400;2024-01-30T08:57:07;7.70;99.90
3281;DHT22;1652;51.31805600;6.20194400;2024-01-30T08:59:34;7.80;99.90
3281;DHT22;1652;51.31805600;6.20194400;2024-01-30T09:10:00;8.20;99.90
3281;DHT22;1652;51.31805600;6.20194400;2024-01-30T09:12:27;8.20;99.90
3281;DHT22;1652;51.31805600;6.20194400;2024-01-30T09:14:54;8.30;99.90
3281;DHT22;1652;51.31805600;6.20194400;2024-01-30T09:17:21;8.40;99.90
3281;DHT22;1652;51.31805600;6.20194400;2024-01-30T09:19:48;8.50;99.90
3281;DHT22;1652;51.31805600;6.20194400;2024-01-30T09:22:19;8.60;99.90
3281;DHT22;1652;51.31805600;6.20194400;2024-01-30T09:24:46;8.80;99.90
3281;DHT22;1652;51.31805600;6.20194400;2024-01-30T09:29:39;9.30;99.90
3281;DHT22;1652;51.31805600;6.20194400;2024-01-30T09:32:06;9.50;99.90
3281;DHT22;1652;51.31805600;6.20194400;2024-01-30T09:34:33;9.50;99.90
3281;DHT22;1652;51.31805600;6.20194400;2024-01-30T09:37:00;9.40;99.90
3281;DHT22;1652;51.31805600;6.20194400;2024-01-30T09:39:27;9.60;99.90
3281;DHT22;1652;51.31805600;6.20194400;2024-01-30T09:42:05;9.50;99.90
3281;DHT22;1652;51.31805600;6.20194400;2024-01-30T09:44:38;9.90;99.90
3281;DHT22;1652;51.31805600;6.20194400;2024-01-30T09:47:08;10.00;99.90
3281;DHT22;1652;51.31805600;6.20194400;2024-01-30T09:49:36;10.20;99.90
3281;DHT22;1652;51.31805600;6.20194400;2024-01-30T09:52:11;10.50;99.90
3281;DHT22;1652;51.31805600;6.20194400;2024-01-30T09:54:42;10.70;99.90
3281;DHT22;1652;51.31805600;6.20194400;2024-01-30T09:57:11;10.80;99.90
3281;DHT22;1652;51.31805600;6.20194400;2024-01-30T09:59:48;11.00;99.90
3281;DHT22;1652;51.31805600;6.20194400;2024-01-30T10:41:44;11.70;99.90
3281;DHT22;1652;51.31805600;6.20194400;2024-01-30T10:44:36;11.70;99.90
3281;DHT22;1652;51.31805600;6.20194400;2024-01-30T10:47:07;11.70;99.90
3281;DHT22;1652;51.31805600;6.20194400;2024-01-30T10:49:37;11.70;99.90
3281;DHT22;1652;51.31805600;6.20194400;2024-01-30T10:52:05;11.70;99.90
3281;DHT22;1652;51.31805600;6.20194400;2024-01-30T10:54:35;11.60;99.90
3281;DHT22;1652;51.31805600;6.20194400;2024-01-30T10:57:03;11.70;99.90
3281;DHT22;1652;51.31805600;6.20194400;2024-01-30T10:59:31;11.70;99.90
3281;DHT22;1652;51.31805600;6.20194400;2024-01-30T11:01:59;11.80;99.90
3281;DHT22;1652;51.31805600;6.20194400;2024-01-30T11:04:27;11.90;99.90
3281;DHT22;1652;51.31805600;6.20194400;2024-01-30T11:06:54;12.00;99.90
3281;DHT22;1652;51.31805600;6.20194400;2024-01-30T11:09:21;12.10;99.90
3281;DHT22;1652;51.31805600;6.20194400;2024-01-30T11:11:51;12.10;99.90
3281;DHT22;1652;51.31805600;6.20194400;2024-01-30T11:14:25;12.10;99.90
3281;DHT22;1652;51.31805600;6.20194400;2024-01-30T11:16:52;12.20;99.90
3281;DHT22;1652;51.31805600;6.20194400;2024-01-30T11:19:23;12.10;99.90
3281;DHT22;1652;51.31805600;6.20194400;2024-01-30T11:21:54;12.00;99.90
3281;DHT22;1652;51.31805600;6.20194400;2024-01-30T11:24:23;12.00;99.90
3281;DHT22;1652;51.31805600;6.20194400;2024-01-30T11:26:57;12.00;99.90
3281;DHT22;1652;51.31805600;6.20194400;2024-01-30T11:29:26;12.00;99.90
3281;DHT22;1652;51.31805600;6.20194400;2024-01-30T11:31:59;12.00;99.90
3281;DHT22;1652;51.31805600;6.20194400;2024-01-30T11:34:26;12.00;99.90
3281;DHT22;1652;51.31805600;6.20194400;2024-01-30T11:37:03;12.00;99.90
3281;DHT22;1652;51.31805600;6.20194400;2024-01-30T11:39:32;12.00;99.90
3281;DHT22;1652;51.31805600;6.20194400;2024-01-30T11:41:59;12.00;99.90
3281;DHT22;1652;51.31805600;6.20194400;2024-01-30T11:44:26;11.90;99.90
3281;DHT22;1652;51.31805600;6.20194400;2024-01-30T11:46:53;12.00;99.90
3281;DHT22;1652;51.31805600;6.20194400;2024-01-30T11:49:20;12.00;99.90
3281;DHT22;1652;51.31805600;6.20194400;2024-01-30T11:51:48;12.10;99.90
3281;DHT22;1652;51.31805600;6.20194400;2024-01-30T11:54:16;12.20;99.90
3281;DHT22;1652;51.31805600;6.20194400;2024-01-30T11:56:43;12.20;99.90
3281;DHT22;1652;51.31805600;6.20194400;2024-01-30T11:59:10;12.30;99.90
3281;DHT22;1652;51.31805600;6.20194400;2024-01-30T12:01:37;12.30;99.90
3281;DHT22;1652;51.31805600;6.20194400;2024-01-30T12:04:04;12.20;99.90
3281;DHT22;1652;51.31805600;6.20194400;2024-01-30T12:06:37;12.30;99.90
3281;DHT22;1652;51.31805600;6.20194400;2024-01-30T12:09:04;12.20;99.90
3281;DHT22;1652;51.31805600;6.20194400;2024-01-30T12:11:31;12.20;99.90
3281;DHT22;1652;51.31805600;6.20194400;2024-01-30T12:13:58;12.10;99.90
3281;DHT22;1652;51.31805600;6.20194400;2024-01-30T12:16:26;12.00;99.90
3281;DHT22;1652;51.31805600;6.20194400;2024-01-30T12:19:00;12.10;99.90
3281;DHT22;1652;51.31805600;6.20194400;2024-01-30T12:21:30;12.10;99.90
3281;DHT22;1652;51.31805600;6.20194400;2024-01-30T12:23:57;12.10;99.90
3281;DHT22;1652;51.31805600;6.20194400;2024-01-30T12:26:26;12.20;99.90
3281;DHT22;1652;51.31805600;6.20194400;2024-01-30T12:28:56;12.40;99.90
3281;DHT22;1652;51.31805600;6.20194400;2024-01-30T12:31:26;12.50;99.90
3281;DHT22;1652;51.31805600;6.20194400;2024-01-30T12:33:56;12.60;99.90
3281;DHT22;1652;51.31805600;6.20194400;2024-01-30T12:36:25;12.70;99.90
3281;DHT22;1652;51.31805600;6.20194400;2024-01-30T12:38:52;12.80;99.90
3281;DHT22;1652;51.31805600;6.20194400;2024-01-30T12:41:20;12.90;99.90
3281;DHT22;1652;51.31805600;6.20194400;2024-01-30T12:43:47;13.00;99.90
3281;DHT22;1652;51.31805600;6.20194400;2024-01-30T12:46:17;13.00;99.90
3281;DHT22;1652;51.31805600;6.20194400;2024-01-30T12:48:44;13.10;99.90
3281;DHT22;1652;51.31805600;6.20194400;2024-01-30T12:51:12;13.20;99.90
3281;DHT22;1652;51.31805600;6.20194400;2024-01-30T12:53:38;13.20;99.90
3281;DHT22;1652;51.31805600;6.20194400;2024-01-30T12:56:08;13.20;99.90
3281;DHT22;1652;51.31805600;6.20194400;2024-01-30T12:58:35;13.30;99.90
3281;DHT22;1652;51.31805600;6.20194400;2024-01-30T13:11:59;13.20;99.90
3281;DHT22;1652;51.31805600;6.20194400;2024-01-30T13:14:33;13.30;99.90
3281;DHT22;1652;51.31805600;6.20194400;2024-01-30T13:17:15;13.20;99.90
3281;DHT22;1652;51.31805600;6.20194400;2024-01-30T13:19:42;13.20;99.90
3281;DHT22;1652;51.31805600;6.20194400;2024-01-30T13:22:09;13.20;99.90
3281;DHT22;1652;51.31805600;6.20194400;2024-01-30T13:24:37;13.20;99.90
3281;DHT22;1652;51.31805600;6.20194400;2024-01-30T13:27:04;13.10;99.90
3281;DHT22;1652;51.31805600;6.20194400;2024-01-30T13:29:36;13.10;99.90
3281;DHT22;1652;51.31805600;6.20194400;2024-01-30T13:32:03;13.10;99.90
3281;DHT22;1652;51.31805600;6.20194400;2024-01-30T13:34:30;13.20;99.90
3281;DHT22;1652;51.31805600;6.20194400;2024-01-30T13:36:57;13.20;99.90
3281;DHT22;1652;51.31805600;6.20194400;2024-01-30T13:39:24;13.20;99.90
3281;DHT22;1652;51.31805600;6.20194400;2024-01-30T13:41:58;13.10;99.90
3281;DHT22;1652;51.31805600;6.20194400;2024-01-30T13:44:25;12.90;99.90
3281;DHT22;1652;51.31805600;6.20194400;2024-01-30T13:46:52;12.90;99.90
3281;DHT22;1652;51.31805600;6.20194400;2024-01-30T13:49:20;12.80;99.90
3281;DHT22;1652;51.31805600;6.20194400;2024-01-30T13:51:47;12.70;99.90
3281;DHT22;1652;51.31805600;6.20194400;2024-01-30T13:54:13;12.70;99.90
3281;DHT22;1652;51.31805600;6.20194400;2024-01-30T13:56:42;12.90;99.90
3281;DHT22;1652;51.31805600;6.20194400;2024-01-30T13:59:09;13.00;99.90
3281;DHT22;1652;51.31805600;6.20194400;2024-01-30T14:01:36;13.00;99.90
3281;DHT22;1652;51.31805600;6.20194400;2024-01-30T14:04:03;12.80;99.90
3281;DHT22;1652;51.31805600;6.20194400;2024-01-30T14:06:37;12.70;99.90
3281;DHT22;1652;51.31805600;6.20194400;2024-01-30T14:09:22;12.60;99.90
3281;DHT22;1652;51.31805600;6.20194400;2024-01-30T14:11:49;12.40;99.90
3281;DHT22;1652;51.31805600;6.20194400;2024-01-30T14:14:16;12.30;99.90
3281;DHT22;1652;51.31805600;6.20194400;2024-01-30T14:16:43;12.20;99.90
3281;DHT22;1652;51.31805600;6.20194400;2024-01-30T14:19:10;12.10;99.90
3281;DHT22;1652;51.31805600;6.20194400;2024-01-30T14:21:36;12.00;99.90
3281;DHT22;1652;51.31805600;6.20194400;2024-01-30T14:24:04;12.00;99.90
3281;DHT22;1652;51.31805600;6.20194400;2024-01-30T14:26:31;11.90;99.90
3281;DHT22;1652;51.31805600;6.20194400;2024-01-30T14:28:57;11.90;99.90
3281;DHT22;1652;51.31805600;6.20194400;2024-01-30T14:31:24;11.80;99.90
3281;DHT22;1652;51.31805600;6.20194400;2024-01-30T14:33:51;11.70;99.90
3281;DHT22;1652;51.31805600;6.20194400;2024-01-30T14:36:19;11.60;99.90
3281;DHT22;1652;51.31805600;6.20194400;2024-01-30T14:38:47;11.60;99.90
3281;DHT22;1652;51.31805600;6.20194400;2024-01-30T14:41:14;11.60;99.90
3281;DHT22;1652;51.31805600;6.20194400;2024-01-30T14:43:41;11.50;99.90
3281;DHT22;1652;51.31805600;6.20194400;2024-01-30T14:46:08;11.30;99.90
3281;DHT22;1652;51.31805600;6.20194400;2024-01-30T14:48:35;11.20;99.90
3281;DHT22;1652;51.31805600;6.20194400;2024-01-30T14:51:02;11.20;99.90
3281;DHT22;1652;51.31805600;6.20194400;2024-01-30T14:53:29;11.20;99.90
3281;DHT22;1652;51.31805600;6.20194400;2024-01-30T14:55:56;11.10;99.90
3281;DHT22;1652;51.31805600;6.20194400;2024-01-30T14:58:23;11.10;99.90
3281;DHT22;1652;51.31805600;6.20194400;2024-01-30T15:00:50;11.00;99.90
3281;DHT22;1652;51.31805600;6.20194400;2024-01-30T15:03:17;10.90;99.90
3281;DHT22;1652;51.31805600;6.20194400;2024-01-30T15:05:44;10.90;99.90
3281;DHT22;1652;51.31805600;6.20194400;2024-01-30T15:08:11;10.80;99.90
3281;DHT22;1652;51.31805600;6.20194400;2024-01-30T15:22:50;10.80;99.90
3281;DHT22;1652;51.31805600;6.20194400;2024-01-30T15:25:17;10.70;99.90
3281;DHT22;1652;51.31805600;6.20194400;2024-01-30T15:27:44;10.80;99.90
3281;DHT22;1652;51.31805600;6.20194400;2024-01-30T15:30:12;10.80;99.90
3281;DHT22;1652;51.31805600;6.20194400;2024-01-30T15:32:39;10.80;99.90
3281;DHT22;1652;51.31805600;6.20194400;2024-01-30T15:35:06;10.80;99.90
3281;DHT22;1652;51.31805600;6.20194400;2024-01-30T15:37:33;10.80;99.90
3281;DHT22;1652;51.31805600;6.20194400;2024-01-30T15:56:06;10.70;99.90
3281;DHT22;1652;51.31805600;6.20194400;2024-01-30T16:01:11;10.60;99.90
3281;DHT22;1652;51.31805600;6.20194400;2024-01-30T16:03:38;10.70;99.90
3281;DHT22;1652;51.31805600;6.20194400;2024-01-30T16:06:06;10.60;99.90
3281;DHT22;1652;51.31805600;6.20194400;2024-01-30T16:08:33;10.60;99.90
3281;DHT22;1652;51.31805600;6.20194400;2024-01-30T16:11:00;10.40;99.90
3281;DHT22;1652;51.31805600;6.20194400;2024-01-30T16:13:27;10.50;99.90
3281;DHT22;1652;51.31805600;6.20194400;2024-01-30T16:15:54;10.40;99.90
3281;DHT22;1652;51.31805600;6.20194400;2024-01-30T16:18:21;10.40;99.90
3281;DHT22;1652;51.31805600;6.20194400;2024-01-30T16:20:48;10.40;99.90
3281;DHT22;1652;51.31805600;6.20194400;2024-01-30T16:23:15;10.40;99.90
3281;DHT22;1652;51.31805600;6.20194400;2024-01-30T16:25:43;10.30;99.90
3281;DHT22;1652;51.31805600;6.20194400;2024-01-30T16:28:10;10.20;99.90
3281;DHT22;1652;51.31805600;6.20194400;2024-01-30T16:30:37;10.20;99.90
3281;DHT22;1652;51.31805600;6.20194400;2024-01-30T16:33:07;10.10;99.90
3281;DHT22;1652;51.31805600;6.20194400;2024-01-30T16:35:34;10.00;99.90
3281;DHT22;1652;51.31805600;6.20194400;2024-01-30T16:38:12;9.90;99.90
3281;DHT22;1652;51.31805600;6.20194400;2024-01-30T16:40:39;9.90;99.90
3281;DHT22;1652;51.31805600;6.20194400;2024-01-30T16:43:06;9.90;99.90
3281;DHT22;1652;51.31805600;6.20194400;2024-01-30T16:45:33;9.80;99.90
3281;DHT22;1652;51.31805600;6.20194400;2024-01-30T16:48:00;9.80;99.90
3281;DHT22;1652;51.31805600;6.20194400;2024-01-30T16:50:27;9.80;99.90
3281;DHT22;1652;51.31805600;6.20194400;2024-01-30T16:52:54;9.70;99.90
3281;DHT22;1652;51.31805600;6.20194400;2024-01-30T16:55:21;9.60;99.90
3281;DHT22;1652;51.31805600;6.20194400;2024-01-30T16:57:49;9.60;99.90
3281;DHT22;1652;51.31805600;6.20194400;2024-01-30T17:00:16;9.60;99.90
3281;DHT22;1652;51.31805600;6.20194400;2024-01-30T17:02:43;9.60;99.90
3281;DHT22;1652;51.31805600;6.20194400;2024-01-30T17:05:11;9.60;99.90
3281;DHT22;1652;51.31805600;6.20194400;2024-01-30T17:07:55;9.50;99.90
3281;DHT22;1652;51.31805600;6.20194400;2024-01-30T17:10:22;9.50;99.90
3281;DHT22;1652;51.31805600;6.20194400;2024-01-30T17:12:49;9.50;99.90
3281;DHT22;1652;51.31805600;6.20194400;2024-01-30T17:15:16;9.30;99.90
3281;DHT22;1652;51.31805600;6.20194400;2024-01-30T17:17:43;9.40;99.90
3281;DHT22;1652;51.31805600;6.20194400;2024-01-30T17:20:10;9.40;99.90
3281;DHT22;1652;51.31805600;6.20194400;2024-01-30T17:22:39;9.30;99.90
3281;DHT22;1652;51.31805600;6.20194400;2024-01-30T17:25:10;9.40;99.90
3281;DHT22;1652;51.31805600;6.20194400;2024-01-30T17:27:37;9.40;99.90
3281;DHT22;1652;51.31805600;6.20194400;2024-01-30T17:30:05;9.30;99.90
3281;DHT22;1652;51.31805600;6.20194400;2024-01-30T17:32:32;9.30;99.90
3281;DHT22;1652;51.31805600;6.20194400;2024-01-30T17:34:59;9.30;99.90
3281;DHT22;1652;51.31805600;6.20194400;2024-01-30T17:37:26;9.20;99.90
3281;DHT22;1652;51.31805600;6.20194400;2024-01-30T17:39:54;9.20;99.90
3281;DHT22;1652;51.31805600;6.20194400;2024-01-30T17:42:21;9.20;99.90
3281;DHT22;1652;51.31805600;6.20194400;2024-01-30T17:47:51;9.20;99.90
3281;DHT22;1652;51.31805600;6.20194400;2024-01-30T17:50:18;9.10;99.90
3281;DHT22;1652;51.31805600;6.20194400;2024-01-30T17:52:45;9.10;99.90
3281;DHT22;1652;51.31805600;6.20194400;2024-01-30T17:55:12;9.10;99.90
3281;DHT22;1652;51.31805600;6.20194400;2024-01-30T17:57:39;9.20;99.90
3281;DHT22;1652;51.31805600;6.20194400;2024-01-30T18:00:06;9.10;99.90
3281;DHT22;1652;51.31805600;6.20194400;2024-01-30T18:02:33;9.00;99.90
3281;DHT22;1652;51.31805600;6.20194400;2024-01-30T18:08:31;9.10;99.90
3281;DHT22;1652;51.31805600;6.20194400;2024-01-30T18:10:59;9.00;99.90
3281;DHT22;1652;51.31805600;6.20194400;2024-01-30T18:13:26;9.00;99.90
3281;DHT22;1652;51.31805600;6.20194400;2024-01-30T18:15:53;8.90;99.90
3281;DHT22;1652;51.31805600;6.20194400;2024-01-30T18:18:20;8.90;99.90
3281;DHT22;1652;51.31805600;6.20194400;2024-01-30T18:20:48;8.80;99.90
3281;DHT22;1652;51.31805600;6.20194400;2024-01-30T18:23:15;8.90;99.90
3281;DHT22;1652;51.31805600;6.20194400;2024-01-30T18:25:42;8.90;99.90
3281;DHT22;1652;51.31805600;6.20194400;2024-01-30T18:28:09;8.90;99.90
3281;DHT22;1652;51.31805600;6.20194400;2024-01-30T18:30:36;8.90;99.90
3281;DHT22;1652;51.31805600;6.20194400;2024-01-30T18:33:03;8.80;99.90
3281;DHT22;1652;51.31805600;6.20194400;2024-01-30T18:35:31;8.90;99.90
3281;DHT22;1652;51.31805600;6.20194400;2024-01-30T18:38:00;8.80;99.90
3281;DHT22;1652;51.31805600;6.20194400;2024-01-30T18:40:28;8.80;99.90
3281;DHT22;1652;51.31805600;6.20194400;2024-01-30T18:42:55;8.80;99.90
3281;DHT22;1652;51.31805600;6.20194400;2024-01-30T18:45:22;8.80;99.90
3281;DHT22;1652;51.31805600;6.20194400;2024-01-30T18:47:50;8.80;99.90
3281;DHT22;1652;51.31805600;6.20194400;2024-01-30T18:50:17;8.70;99.90
3281;DHT22;1652;51.31805600;6.20194400;2024-01-30T18:52:44;8.80;99.90
3281;DHT22;1652;51.31805600;6.20194400;2024-01-30T18:55:11;8.70;99.90
3281;DHT22;1652;51.31805600;6.20194400;2024-01-30T18:57:39;8.70;99.90
3281;DHT22;1652;51.31805600;6.20194400;2024-01-30T19:00:06;8.70;99.90
3281;DHT22;1652;51.31805600;6.20194400;2024-01-30T19:02:34;8.60;99.90
3281;DHT22;1652;51.31805600;6.20194400;2024-01-30T19:05:01;8.60;99.90
3281;DHT22;1652;51.31805600;6.20194400;2024-01-30T19:07:28;8.50;99.90
3281;DHT22;1652;51.31805600;6.20194400;2024-01-30T19:09:56;8.60;99.90
3281;DHT22;1652;51.31805600;6.20194400;2024-01-30T19:12:23;8.50;99.90
3281;DHT22;1652;51.31805600;6.20194400;2024-01-30T19:14:50;8.50;99.90
3281;DHT22;1652;51.31805600;6.20194400;2024-01-30T19:17:18;8.40;99.90
3281;DHT22;1652;51.31805600;6.20194400;2024-01-30T19:19:45;8.30;99.90
3281;DHT22;1652;51.31805600;6.20194400;2024-01-30T19:22:13;8.30;99.90
3281;DHT22;1652;51.31805600;6.20194400;2024-01-30T19:24:41;8.30;99.90
3281;DHT22;1652;51.31805600;6.20194400;2024-01-30T19:27:08;8.30;99.90
3281;DHT22;1652;51.31805600;6.20194400;2024-01-30T19:29:35;8.40;99.90
3281;DHT22;1652;51.31805600;6.20194400;2024-01-30T19:32:02;8.40;99.90
3281;DHT22;1652;51.31805600;6.20194400;2024-01-30T19:34:29;8.40;99.90
3281;DHT22;1652;51.31805600;6.20194400;2024-01-30T19:36:56;8.40;99.90
3281;DHT22;1652;51.31805600;6.20194400;2024-01-30T19:39:23;8.40;99.90
3281;DHT22;1652;51.31805600;6.20194400;2024-01-30T19:41:50;8.40;99.90
3281;DHT22;1652;51.31805600;6.20194400;2024-01-30T19:44:17;8.40;99.90
3281;DHT22;1652;51.31805600;6.20194400;2024-01-30T19:46:43;8.40;99.90
3281;DHT22;1652;51.31805600;6.20194400;2024-01-30T19:49:11;8.30;99.90